KCHK

Chickasha Municipal Airport

Chickasha, Oklahoma, USA
METAR KCHK 141315Z AUTO 03003KT 10SM OVC031 21/21 A2991 RMK AO2 LTG DSNT N AND S T02140209
Observed Flight Rules
Aug-14 @ 13:15 UTC (28 minutes ago) Visual Flight Rules
Wind Visibility Clouds
30° at 3 knots 10 miles
  • Overcast at 3,100' AGL
Temperatures Readings
Current 21°C / 70°F
Dewpoint 21°C / 70°F
Humidity 100%
Altimeter 29.91" Hg
Pressure 1013 hPa
Elevation 351
METAR KCHK 141315Z AUTO 03003KT 10SM OVC031 21/21 A2991 RMK AO2 LTG DSNT N AND S T02140209
Observed Flight Rules
Aug-14 @ 13:15 UTC
(28 minutes ago)
VFR
Wind Visibility
30° at 3 knots 10 miles
Clouds
  • Overcast at 3,100' AGL
Temperature Dewpoint
21°C / 70°F 21°C / 70°F
Humidity Altimeter Pressure
100% 29.91" Hg 1013 hPa